Caledonie A339 at Tokyo on Dec 18th 2020, flaps problem

Last Update: December 18, 2020 / 16:34:46 GMT/Zulu time

Bookmark this article
Incident Facts

Date of incident
Dec 18, 2020

Classification
Incident

Flight number
SB-800

Aircraft Registration
F-ONET

Aircraft Type
Airbus A330-900

ICAO Type Designator
A339

Airport ICAO Code
RJAA

An Air Caledonie International (also known as Aircalin) Airbus A330-900N, registration F-ONET performing flight SB-800 from Noumea (New Caledonia) to Tokyo Narita (Japan) with 173 people on board, was on approach to Tokyo when the crew stopped the descent at 4000 feet reporting problems with the flaps. The aircraft entered a hold at 4000 feet, in between also 5000 feet, while the crew worked the related checklists and prepared for landing. The aircraft subsequently landed on Narita's runway 34L at a higher than normal speed (160 knots over ground) about 35 minutes later.

The aircraft is still on the ground in Tokyo about 16.5 hours after landing.

Metars:
RJAA 180100Z 32004KT 280V350 9999 FEW030 07/M05 Q1020 NOSIG=
RJAA 180030Z 33007KT 9999 FEW030 06/M05 Q1020 NOSIG=
RJAA 180000Z 34003KT 300V020 9999 FEW030 05/M05 Q1020 NOSIG=
RJAA 172330Z 33004KT 9999 FEW030 03/M05 Q1020 NOSIG=
RJAA 172300Z 33004KT 9999 FEW030 01/M04 Q1020 NOSIG=
RJAA 172230Z VRB01KT 9999 FEW030 M03/M06 Q1020 NOSIG=
RJAA 172200Z VRB02KT 9999 FEW030 M04/M08 Q1020 NOSIG=
RJAA 172130Z 26002KT 9999 FEW030 M05/M07 Q1020 NOSIG=
RJAA 172100Z VRB01KT 9999 FEW030 M04/M07 Q1019 NOSIG=
RJAA 172030Z 27002KT 9999 FEW030 M05/M07 Q1019 NOSIG=
RJAA 172000Z 24003KT 9999 FEW030 M05/M07 Q1019 NOSIG=
RJAA 171930Z VRB01KT 9999 FEW030 M04/M07 Q1018 NOSIG=
RJAA 171900Z VRB02KT 9999 FEW030 M04/M07 Q1018 NOSIG=
RJAA 171830Z VRB01KT 9999 FEW030 M05/M08 Q1019 NOSIG=
RJAA 171800Z VRB02KT 9999 FEW030 M04/M07 Q1019 NOSIG=
Aircraft Registration Data New!
Registration mark
F-ONET
Country of Registration
France
Manufacturer
AIRBUS
Aircraft Model / Type
A330-941
ICAO Aircraft Type
A339
Serial Number
Engine Count
Main Owner
LifkihkkcAfcdg fkjbjnelfpjcdeAceqfd gcdnlj dmdAAe Afnhengpcbgl Subscribe to unlock
Main Operator
Qnpqq nmnbem hnlqjfcbgdeifqb qqqkpenn qclkbbfqfglhlcnmq pjekAmbgqpbdfkccmbmAcebf Subscribe to unlock
Incident Facts

Date of incident
Dec 18, 2020

Classification
Incident

Flight number
SB-800

Aircraft Registration
F-ONET

Aircraft Type
Airbus A330-900

ICAO Type Designator
A339

Airport ICAO Code
RJAA

This article is published under license from Avherald.com. © of text by Avherald.com.
Article source

You can read 4 more free articles without a subscription.

Subscribe now and continue reading without any limits!

Are you a subscriber?
Login
Subscribe

Read unlimited articles and receive our daily update briefing. Gain better insights into what is happening in commercial aviation safety.

Free newsletter

Want to know more and stay ahead? Get our free weekly newsletter and join 4946 existing subscribers.

By subscribing, you accept our terms and conditions and confirm that you've read our privacy policy.

Send tip

Support AeroInside by sending a small tip amount.

Related articles

Newest articles

Subscribe today

Are you researching aviation incidents? Get access to AeroInside Insights, unlimited read access and receive the daily newsletter.

Pick your plan and subscribe

Partner

Blockaviation logo

A new way to document and demonstrate airworthiness compliance and aircraft value. Find out more.

Virtual Speech logo

ELITE Simulation Solutions is a leading global provider of Flight Simulation Training Devices, IFR training software as well as flight controls and related services. Find out more.

Get updates

Never miss an article from AeroInside. Subscribe to our free weekly newsletter and join 4946 existing subscribers.

By subscribing, you accept our terms and conditions and that you've read our privacy policy.

AeroInside Blog
Popular aircraft
Airbus A320
Boeing 737-800
Boeing 737-800 MAX
Popular airlines
American Airlines
United
Delta
Air Canada
Lufthansa
British Airways